This is the latest recevied weather packets stored in our database for station/object F5IOR. If no packets are shown the sender has not sent any weather packets the latest 10 day(s).
| Time | Temp. | Humidity | Pressure | Rain* | Wind** | Luminosity | Snow |
|---|---|---|---|---|---|---|---|
| 1787904015 | 20.56° C | 73% | 986.1 hPa | 17.78 mm | - | - | - |
| 1787903775 | 20.56° C | 77% | 985.9 hPa | 17.78 mm | - | - | - |
| 1787903535 | 20.56° C | 77% | 985.9 hPa | 17.78 mm | - | - | - |
| 1787903295 | 20.56° C | 77% | 985.9 hPa | 17.78 mm | - | - | - |
| 1787903055 | 20.56° C | 74% | 986.3 hPa | 17.78 mm | - | - | - |
| 1787902935 | 20.56° C | 74% | 986.3 hPa | 17.78 mm | - | - | - |
| 1787902815 | 20.56° C | 74% | 986.3 hPa | 17.78 mm | - | - | - |
| 1787902695 | 20.56° C | 74% | 986.3 hPa | 17.78 mm | - | - | - |
| 1787902575 | 20.56° C | 74% | 986.3 hPa | 17.78 mm | - | - | - |
| 1787902515 | 20.56° C | 74% | 986.3 hPa | 17.78 mm | - | - | - |
| 1787902455 | 20.56° C | 74% | 986.3 hPa | 17.78 mm | - | - | - |
| 1787902395 | 20.56° C | 74% | 986.3 hPa | 17.78 mm | - | - | - |
| 1787857579 | 21.11° C | 87% | 981 hPa | 20.07 mm | - | - | - |
| 1787855779 | 21.11° C | 88% | 981.1 hPa | 20.07 mm | - | - | - |
| 1787853979 | 21.11° C | 89% | 981.7 hPa | 20.07 mm | - | - | - |
| 1787852179 | 21.11° C | 89% | 982.2 hPa | 20.07 mm | - | - | - |
| 1787850379 | 21.67° C | 89% | 982.6 hPa | 20.07 mm | - | - | - |
| 1787848579 | 21.67° C | 88% | 982.1 hPa | 20.07 mm | - | - | - |
| 1787846779 | 24.44° C | 70% | 981.9 hPa | 7.62 mm | - | - | - |
| 1787844979 | 24.44° C | 69% | 982.1 hPa | 7.62 mm | - | - | - |
| 1787843179 | 23.89° C | 75% | 982.6 hPa | 7.62 mm | - | - | - |
| 1787841379 | 23.33° C | 82% | 982.7 hPa | 7.62 mm | - | - | - |
| 1787839579 | 23.89° C | 82% | 982.5 hPa | 7.62 mm | - | - | - |
| 1787837780 | 25.56° C | 69% | 982 hPa | 7.62 mm | - | - | - |
| 1787835979 | 27.78° C | 52% | 982.1 hPa | 32.77 mm | - | - | - |
* Rain latest hour (hover to see other rain measurements)
** Current wind speed in m/s (hover to see current wind gust speed)